createdAt,value
2017-06-03T00:00:28.252Z,31.95
2017-06-03T00:01:43.974Z,31.85
2017-06-03T00:02:59.668Z,31.85
2017-06-03T00:04:15.426Z,32.14
2017-06-03T00:05:30.882Z,32.14
2017-06-03T00:06:46.570Z,32.23
2017-06-03T00:08:02.029Z,31.85
2017-06-03T00:09:17.450Z,32.14
2017-06-03T00:10:31.736Z,31.56
2017-06-03T00:11:47.512Z,32.52
2017-06-03T00:13:03.015Z,31.85
2017-06-03T00:14:18.392Z,32.04
2017-06-03T00:15:32.399Z,32.14
2017-06-03T00:16:48.051Z,32.14
2017-06-03T00:18:03.452Z,32.43
2017-06-03T00:19:18.913Z,32.62
2017-06-03T00:20:34.386Z,32.04
2017-06-03T00:21:50.007Z,32.71
2017-06-03T00:23:05.492Z,33
2017-06-03T00:24:20.908Z,32.7
2017-06-03T00:25:35.062Z,32.62
2017-06-03T00:26:50.720Z,32.89
2017-06-03T00:28:06.193Z,32.98
2017-06-03T00:29:21.291Z,33.28
2017-06-03T00:30:36.467Z,33.66
2017-06-03T00:31:52.141Z,33.75
2017-06-03T00:33:07.501Z,33.75
2017-06-03T00:34:22.952Z,33.64
2017-06-03T00:35:38.430Z,34.03
2017-06-03T00:36:54.048Z,34.12
2017-06-03T00:38:08.169Z,34.31
2017-06-03T00:39:23.645Z,34.22
2017-06-03T00:40:37.794Z,34.41
2017-06-03T00:41:52.076Z,34.31
2017-06-03T00:43:06.273Z,34.31
2017-06-03T00:44:21.664Z,34.81
2017-06-03T00:45:37.082Z,34.43
2017-06-03T00:46:52.757Z,34.7
2017-06-03T00:48:05.781Z,34.8
2017-06-03T00:49:19.902Z,34.7
2017-06-03T00:50:35.353Z,35.18
2017-06-03T00:51:49.765Z,34.99
2017-06-03T00:53:05.183Z,35.08
2017-06-03T00:54:20.637Z,34.89
2017-06-03T00:55:36.152Z,35.47
2017-06-03T00:56:52.011Z,35.18
2017-06-03T00:58:07.403Z,35.66
2017-06-03T00:59:21.567Z,35.57
2017-06-03T01:00:36.968Z,35.57
2017-06-03T01:01:51.312Z,35.85
2017-06-03T01:03:06.808Z,35.66
2017-06-03T01:04:22.294Z,35.76
2017-06-03T01:05:37.842Z,36.05
2017-06-03T01:06:53.538Z,35.85
2017-06-03T01:08:09.303Z,35.95
2017-06-03T01:09:25.001Z,36.05
2017-06-03T01:10:40.555Z,35.95
2017-06-03T01:11:56.227Z,36.15
2017-06-03T01:13:10.203Z,36.24
2017-06-03T01:14:25.657Z,36.24
2017-06-03T01:15:41.126Z,36.24
2017-06-03T01:16:55.366Z,36.15
2017-06-03T01:18:09.528Z,36.15
2017-06-03T01:19:25.041Z,36.33
2017-06-03T01:20:40.465Z,36.33
2017-06-03T01:21:56.119Z,36.43
2017-06-03T01:23:11.781Z,36.43
2017-06-03T01:24:27.274Z,36.33
2017-06-03T01:26:13.693Z,36.43
2017-06-03T01:27:29.683Z,36.15
2017-06-03T01:28:45.340Z,36.62
2017-06-03T01:30:01.112Z,36.43
2017-06-03T01:31:15.206Z,36.62
2017-06-03T01:32:29.572Z,36.82
2017-06-03T01:33:44.965Z,36.43
2017-06-03T01:35:00.461Z,36.91
2017-06-03T01:36:15.916Z,36.91
2017-06-03T01:37:31.534Z,37.49
2017-06-03T01:38:46.911Z,37.2
2017-06-03T01:40:01.051Z,37.39
2017-06-03T01:41:16.513Z,37.2
2017-06-03T01:42:32.169Z,37.1
2017-06-03T01:43:47.660Z,37.1
2017-06-03T01:45:03.473Z,37.27
2017-06-03T01:46:18.873Z,37.37
2017-06-03T01:47:34.525Z,37.08
2017-06-03T01:49:20.829Z,37.2
2017-06-03T01:50:36.242Z,37.08
2017-06-03T01:51:51.664Z,37.27
2017-06-03T01:53:07.315Z,37.76
2017-06-03T01:54:23.316Z,38.24
2017-06-03T01:55:37.417Z,38.04
2017-06-03T01:56:52.466Z,37.85
2017-06-03T01:58:06.608Z,37.76
2017-06-03T01:59:22.543Z,37.76
2017-06-03T02:00:38.002Z,38.26
2017-06-03T02:01:53.456Z,38.26
2017-06-03T02:03:09.412Z,38.16
2017-06-03T02:04:24.828Z,38.04
2017-06-03T02:05:40.272Z,38.16
2017-06-03T02:06:55.974Z,38.26
2017-06-03T02:08:11.619Z,38.07
2017-06-03T02:09:27.376Z,38.07
2017-06-03T02:10:42.802Z,38.07
2017-06-03T02:11:56.943Z,38.26
2017-06-03T02:13:11.338Z,38.45
2017-06-03T02:14:26.778Z,38.24
2017-06-03T02:15:42.280Z,38.62
2017-06-03T02:16:56.715Z,38.53
2017-06-03T02:18:12.329Z,38.26
2017-06-03T02:19:27.758Z,38.54
2017-06-03T02:20:43.479Z,39.03
2017-06-03T02:21:59.349Z,38.74
2017-06-03T02:23:15.250Z,38.72
2017-06-03T02:24:30.719Z,38.93
2017-06-03T02:25:46.270Z,39.12
2017-06-03T02:27:01.829Z,39.22
2017-06-03T02:28:17.459Z,39.03
2017-06-03T02:29:31.642Z,39.03
2017-06-03T02:30:47.069Z,39.12
2017-06-03T02:32:02.579Z,39.12
2017-06-03T02:33:18.237Z,38.84
2017-06-03T02:34:33.698Z,39.22
2017-06-03T02:35:49.167Z,39.12
2017-06-03T02:37:03.343Z,38.93
2017-06-03T02:38:18.971Z,39.22
2017-06-03T02:39:34.474Z,39.22
2017-06-03T02:40:49.907Z,39.12
2017-06-03T02:42:05.407Z,39.12
2017-06-03T02:43:21.455Z,39.12
2017-06-03T02:44:36.951Z,39.2
2017-06-03T02:45:52.602Z,39.01
2017-06-03T02:47:07.982Z,39.2
2017-06-03T02:48:23.631Z,39.11
2017-06-03T02:49:39.181Z,39.11
2017-06-03T02:50:53.283Z,38.91
2017-06-03T02:52:08.699Z,39.41
2017-06-03T02:53:24.350Z,39.12
2017-06-03T02:54:39.712Z,39.12
2017-06-03T02:55:55.156Z,38.72
2017-06-03T02:57:09.323Z,39.39
2017-06-03T02:58:24.951Z,39.39
2017-06-03T02:59:39.124Z,39.51
2017-06-03T03:00:54.494Z,39.12
2017-06-03T03:02:09.958Z,39.12
2017-06-03T03:03:23.970Z,39.22
2017-06-03T03:04:39.614Z,39.12
2017-06-03T03:05:55.095Z,39.51
2017-06-03T03:07:10.493Z,39.22
2017-06-03T03:08:25.946Z,39.03
2017-06-03T03:09:41.591Z,39.22
2017-06-03T03:10:55.728Z,39.12
2017-06-03T03:12:09.874Z,39.12
2017-06-03T03:13:25.335Z,39.31
2017-06-03T03:14:41.419Z,39.41
2017-06-03T03:15:56.849Z,39.51
2017-06-03T03:17:12.301Z,39.31
2017-06-03T03:18:27.716Z,39.41
2017-06-03T03:19:43.813Z,39.41
2017-06-03T03:20:56.558Z,39.22
2017-06-03T03:22:11.926Z,39.41
2017-06-03T03:23:27.350Z,39.41
2017-06-03T03:24:42.975Z,39.51
2017-06-03T03:25:58.439Z,39.41
2017-06-03T03:27:13.868Z,39.41
2017-06-03T03:28:29.357Z,39.41
2017-06-03T03:29:45.036Z,39.41
2017-06-03T03:31:00.523Z,39.31
2017-06-03T03:32:16.002Z,39.31
2017-06-03T03:33:30.120Z,39.41
2017-06-03T03:34:44.712Z,39.22
2017-06-03T03:35:58.770Z,39.51
2017-06-03T03:37:14.157Z,39.51
2017-06-03T03:38:29.609Z,39.7
2017-06-03T03:39:44.186Z,39.22
2017-06-03T03:40:59.603Z,39.51
2017-06-03T03:42:15.056Z,39.51
2017-06-03T03:43:28.999Z,39.41
2017-06-03T03:44:44.687Z,39.41
2017-06-03T03:46:00.093Z,39.41
2017-06-03T03:47:14.221Z,39.41
2017-06-03T03:48:28.447Z,39.7
2017-06-03T03:49:43.936Z,39.61
2017-06-03T03:50:59.558Z,39.61
2017-06-03T03:52:15.006Z,39.7
2017-06-03T03:53:30.391Z,39.51
2017-06-03T03:54:46.161Z,39.7
2017-06-03T03:56:00.494Z,39.51
2017-06-03T03:57:15.941Z,39.78
2017-06-03T03:58:31.670Z,39.7
2017-06-03T03:59:47.077Z,39.87
2017-06-03T04:01:01.406Z,39.89
2017-06-03T04:02:16.838Z,39.87
2017-06-03T04:03:32.248Z,39.97
2017-06-03T04:04:47.658Z,40.55
2017-06-03T04:06:03.402Z,40.25
2017-06-03T04:07:19.081Z,40.35
2017-06-03T04:08:34.531Z,40.25
2017-06-03T04:09:50.277Z,40.45
2017-06-03T04:11:05.891Z,40.16
2017-06-03T04:12:21.280Z,40.25
2017-06-03T04:13:36.755Z,40.35
2017-06-03T04:14:52.394Z,40.45
2017-06-03T04:16:07.704Z,40.35
2017-06-03T04:17:23.153Z,40.55
2017-06-03T04:18:38.632Z,40.37
2017-06-03T04:19:52.688Z,40.28
2017-06-03T04:21:08.302Z,40.28
2017-06-03T04:22:21.099Z,39.89
2017-06-03T04:23:36.762Z,40.35
2017-06-03T04:24:52.245Z,40.28
2017-06-03T04:26:07.905Z,40.37
2017-06-03T04:27:23.522Z,39.89
2017-06-03T04:28:38.914Z,39.89
2017-06-03T04:29:54.318Z,39.7
2017-06-03T04:31:09.872Z,39.79
2017-06-03T04:32:25.311Z,39.89
2017-06-03T04:33:39.638Z,39.7
2017-06-03T04:34:54.990Z,39.89
2017-06-03T04:36:10.588Z,39.61
2017-06-03T04:37:26.024Z,39.61
2017-06-03T04:38:41.518Z,39.89
2017-06-03T04:39:56.927Z,39.79
2017-06-03T04:41:11.257Z,39.89
2017-06-03T04:42:26.796Z,39.89
2017-06-03T04:43:42.241Z,39.99
2017-06-03T04:44:57.918Z,40.08
2017-06-03T04:46:12.107Z,40.28
2017-06-03T04:47:27.551Z,40.47
2017-06-03T04:48:43.006Z,40.47
2017-06-03T04:49:58.422Z,40.47
2017-06-03T04:51:14.134Z,40.55
2017-06-03T04:52:26.814Z,40.56
2017-06-03T04:53:40.944Z,40.35
2017-06-03T04:54:56.624Z,41.02
2017-06-03T04:56:12.555Z,40.83
2017-06-03T04:57:26.661Z,40.73
2017-06-03T04:58:40.779Z,40.73
2017-06-03T04:59:56.201Z,40.73
2017-06-03T05:01:10.554Z,40.73
2017-06-03T05:02:26.066Z,40.93
2017-06-03T05:03:41.506Z,41.12
2017-06-03T05:04:56.940Z,40.55
2017-06-03T05:06:11.269Z,40.93
2017-06-03T05:07:26.712Z,40.55
2017-06-03T05:08:42.210Z,41.02
2017-06-03T05:09:57.686Z,40.64
2017-06-03T05:11:11.881Z,40.45
2017-06-03T05:12:26.152Z,40.64
2017-06-03T05:13:41.615Z,40.83
2017-06-03T05:15:26.829Z,40.64
2017-06-03T05:16:42.658Z,40.64
2017-06-03T05:17:56.820Z,41.02
2017-06-03T05:19:12.263Z,41.41
2017-06-03T05:20:27.681Z,41.31
2017-06-03T05:21:43.297Z,41.41
2017-06-03T05:22:58.931Z,41.79
2017-06-03T05:24:14.011Z,42.18
2017-06-03T05:25:29.357Z,42.08
2017-06-03T05:26:45.145Z,42.83
2017-06-03T05:28:00.603Z,42.54
2017-06-03T05:29:16.034Z,43.4
2017-06-03T05:30:31.468Z,43.5
2017-06-03T05:31:47.055Z,44.17
2017-06-03T05:33:02.639Z,44.65
2017-06-03T05:34:18.067Z,45.23
2017-06-03T05:35:33.550Z,46.09
2017-06-03T05:36:49.257Z,46.86
2017-06-03T05:38:04.673Z,47.13
2017-06-03T05:39:20.216Z,47.8
2017-06-03T05:40:34.341Z,47.61
2017-06-03T05:41:50.122Z,48.95
2017-06-03T05:43:05.875Z,48.85
2017-06-03T05:44:21.314Z,49.43
2017-06-03T05:45:35.334Z,50.01
2017-06-03T05:46:51.015Z,50.39
2017-06-03T05:48:06.441Z,51.25
2017-06-03T05:49:21.896Z,51.45
2017-06-03T05:50:37.322Z,52.22
2017-06-03T05:51:53.034Z,52.19
2017-06-03T05:53:08.390Z,52.86
2017-06-03T05:54:23.861Z,53.15
2017-06-03T05:55:39.398Z,53.44
2017-06-03T05:56:55.037Z,53.91
2017-06-03T05:58:09.203Z,54.11
2017-06-03T05:59:24.607Z,55.16
2017-06-03T06:00:39.985Z,55.26
2017-06-03T06:01:54.286Z,55.71
2017-06-03T06:03:09.708Z,56.67
2017-06-03T06:04:23.732Z,56.6
2017-06-03T06:05:39.215Z,56.31
2017-06-03T06:06:54.886Z,56.67
2017-06-03T06:08:10.287Z,57.06
2017-06-03T06:09:24.477Z,56.89
2017-06-03T06:10:39.949Z,56.89
2017-06-03T06:11:55.653Z,56.6
2017-06-03T06:13:11.078Z,56.7
2017-06-03T06:14:26.489Z,56.7
2017-06-03T06:15:41.916Z,56.31
2017-06-03T06:16:56.360Z,56.12
2017-06-03T06:18:11.808Z,56.31
2017-06-03T06:19:27.493Z,56.98
2017-06-03T06:20:42.976Z,56.98
2017-06-03T06:21:58.679Z,57.18
2017-06-03T06:23:11.534Z,57.46
2017-06-03T06:24:26.995Z,57.75
2017-06-03T06:25:42.682Z,58.14
2017-06-03T06:26:56.999Z,58.04
2017-06-03T06:28:11.352Z,58.33
2017-06-03T06:29:24.036Z,57.37
2017-06-03T06:30:39.672Z,57.56
2017-06-03T06:32:24.954Z,57.46
2017-06-03T06:33:39.164Z,57.18
2017-06-03T06:34:54.628Z,57.56
2017-06-03T06:36:10.085Z,57.5
2017-06-03T06:37:24.414Z,57.5
2017-06-03T06:38:39.850Z,57.5
2017-06-03T06:39:53.993Z,57.3
2017-06-03T06:41:09.450Z,57.3
2017-06-03T06:42:23.634Z,57.5
2017-06-03T06:43:39.419Z,56.92
2017-06-03T06:44:54.876Z,56.73
2017-06-03T06:46:09.913Z,56.24
2017-06-03T06:47:25.396Z,56.44
2017-06-03T06:48:41.067Z,56.73
2017-06-03T06:49:56.479Z,56.63
2017-06-03T06:51:11.844Z,56.56
2017-06-03T06:52:27.308Z,56.76
2017-06-03T06:53:42.953Z,56.37
2017-06-03T06:54:57.560Z,56.37
2017-06-03T06:56:12.973Z,56.18
2017-06-03T06:57:28.454Z,55.89
2017-06-03T06:58:44.161Z,55.69
2017-06-03T06:59:59.643Z,55.6
2017-06-03T07:01:15.052Z,55.51
2017-06-03T07:02:30.547Z,55.22
2017-06-03T07:03:46.247Z,55.12
2017-06-03T07:05:01.703Z,55.02
2017-06-03T07:06:17.416Z,54.93
2017-06-03T07:07:33.102Z,55.24
2017-06-03T07:08:48.742Z,55.51
2017-06-03T07:10:04.230Z,55.12
2017-06-03T07:11:18.375Z,55.05
2017-06-03T07:12:33.774Z,55.05
2017-06-03T07:13:49.697Z,54.86
2017-06-03T07:15:04.091Z,54.86
2017-06-03T07:16:18.052Z,55.22
2017-06-03T07:17:33.474Z,55.22
2017-06-03T07:18:49.435Z,55.22
2017-06-03T07:20:04.931Z,55.41
2017-06-03T07:21:19.133Z,55.41
2017-06-03T07:22:34.577Z,55.22
2017-06-03T07:23:48.888Z,55.34
2017-06-03T07:25:04.539Z,55.32
2017-06-03T07:26:20.040Z,55.41
2017-06-03T07:27:35.734Z,55.41
2017-06-03T07:28:51.416Z,56.37
2017-06-03T07:30:06.854Z,56.27
2017-06-03T07:31:22.319Z,56.46
2017-06-03T07:32:37.749Z,56.66
2017-06-03T07:33:53.373Z,56.46
2017-06-03T07:35:06.185Z,57.04
2017-06-03T07:36:20.401Z,56.66
2017-06-03T07:37:35.816Z,56.82
2017-06-03T07:38:51.479Z,56.73
2017-06-03T07:40:06.898Z,56.92
2017-06-03T07:41:22.341Z,56.92
2017-06-03T07:42:37.887Z,57.3
2017-06-03T07:43:53.566Z,57.4
2017-06-03T07:45:08.992Z,57.5
2017-06-03T07:46:24.371Z,57.78
2017-06-03T07:47:39.821Z,58.36
2017-06-03T07:48:55.549Z,58.74
2017-06-03T07:50:11.005Z,58.81
2017-06-03T07:51:26.459Z,59.67
2017-06-03T07:52:39.210Z,60.35
2017-06-03T07:53:54.944Z,60.72
2017-06-03T07:55:10.451Z,61.69
2017-06-03T07:56:25.930Z,61.66
2017-06-03T07:57:41.358Z,61.66
2017-06-03T07:58:55.685Z,61.66
2017-06-03T08:00:11.443Z,62.52
2017-06-03T08:01:26.923Z,62.71
2017-06-03T08:02:42.472Z,63.09
2017-06-03T08:03:58.298Z,63.76
2017-06-03T08:05:13.738Z,64.43
2017-06-03T08:06:29.218Z,65.2
2017-06-03T08:07:43.348Z,66.06
2017-06-03T08:08:58.978Z,66.06
2017-06-03T08:10:13.175Z,65.49
2017-06-03T08:11:28.749Z,65.97
2017-06-03T08:12:42.746Z,66.16
2017-06-03T08:13:56.926Z,66.64
2017-06-03T08:15:11.759Z,67.02
2017-06-03T08:16:25.930Z,67.5
2017-06-03T08:17:40.009Z,67.89
2017-06-03T08:18:55.488Z,68.18
2017-06-03T08:20:11.134Z,67.41
2017-06-03T08:21:23.919Z,67.41
2017-06-03T08:22:39.335Z,67.6
2017-06-03T08:23:54.462Z,67.89
2017-06-03T08:25:10.091Z,68.08
2017-06-03T08:26:25.575Z,68.08
2017-06-03T08:27:39.704Z,68.85
2017-06-03T08:28:55.168Z,69.52
2017-06-03T08:30:10.874Z,70.48
2017-06-03T08:31:26.337Z,70.67
2017-06-03T08:32:41.769Z,70.76
2017-06-03T08:33:57.244Z,70.35
2017-06-03T08:35:13.084Z,70.44
2017-06-03T08:36:28.502Z,71.31
2017-06-03T08:37:43.981Z,71.21
2017-06-03T08:38:59.405Z,71.4
2017-06-03T08:40:15.385Z,71.4
2017-06-03T08:41:30.824Z,71.4
2017-06-03T08:42:44.989Z,71.78
2017-06-03T08:44:00.831Z,71.78
2017-06-03T08:45:16.744Z,72.17
2017-06-03T08:46:32.269Z,71.88
2017-06-03T08:47:46.399Z,71.88
2017-06-03T08:49:01.899Z,71.98
2017-06-03T08:50:17.558Z,72.36
2017-06-03T08:51:33.503Z,72.74
2017-06-03T08:52:48.940Z,73.09
2017-06-03T08:54:04.455Z,73.22
2017-06-03T08:55:20.118Z,73.8
2017-06-03T08:56:35.509Z,73.7
2017-06-03T08:57:50.984Z,74.08
2017-06-03T08:59:06.497Z,73.7
2017-06-03T09:00:19.650Z,74.08
2017-06-03T09:01:34.777Z,74.18
2017-06-03T09:02:50.176Z,74.76
2017-06-03T09:04:05.725Z,74.62
2017-06-03T09:05:21.451Z,74.85
2017-06-03T09:06:36.928Z,74.66
2017-06-03T09:07:52.381Z,74.95
2017-06-03T09:09:07.684Z,75.04
2017-06-03T09:10:23.481Z,75.43
2017-06-03T09:11:39.152Z,75.52
2017-06-03T09:12:54.624Z,76.1
2017-06-03T09:14:10.074Z,75.62
2017-06-03T09:15:25.771Z,75.04
2017-06-03T09:16:39.928Z,75.04
2017-06-03T09:17:55.411Z,75.37
2017-06-03T09:19:09.396Z,74.98
2017-06-03T09:20:22.461Z,74.98
2017-06-03T09:21:37.977Z,74.79
2017-06-03T09:22:53.807Z,75.37
2017-06-03T09:24:09.269Z,75.75
2017-06-03T09:25:23.743Z,75.46
2017-06-03T09:26:39.246Z,76.32
2017-06-03T09:27:54.707Z,76.52
2017-06-03T09:29:10.135Z,76.37
2017-06-03T09:30:23.590Z,76.56
2017-06-03T09:32:09.818Z,75.89
2017-06-03T09:33:25.458Z,76.07
2017-06-03T09:34:39.462Z,76.04
2017-06-03T09:35:55.209Z,75.65
2017-06-03T09:37:09.398Z,76.14
2017-06-03T09:38:25.082Z,76.52
2017-06-03T09:39:40.531Z,76.62
2017-06-03T09:40:56.375Z,76.71
2017-06-03T09:42:10.455Z,77.09
2017-06-03T09:43:24.579Z,77.09
2017-06-03T09:44:40.060Z,76.81
2017-06-03T09:45:55.821Z,76.62
2017-06-03T09:47:09.930Z,76.32
2017-06-03T09:48:25.372Z,76.9
2017-06-03T09:49:40.505Z,77.86
2017-06-03T09:50:54.829Z,78.05
2017-06-03T09:52:10.678Z,77.51
2017-06-03T09:53:26.257Z,77.04
2017-06-03T09:54:41.770Z,76.46
2017-06-03T09:55:57.498Z,76.94
2017-06-03T09:57:13.179Z,76.88
2017-06-03T09:58:27.406Z,76.59
2017-06-03T09:59:42.913Z,76.5
2017-06-03T10:00:58.090Z,76.79
2017-06-03T10:02:13.449Z,76.02
2017-06-03T10:03:28.833Z,76.79
2017-06-03T10:04:43.012Z,76.5
2017-06-03T10:05:58.637Z,76.69
2017-06-03T10:07:11.751Z,76.5
2017-06-03T10:08:27.299Z,77.46
2017-06-03T10:09:41.467Z,77.46
2017-06-03T10:10:55.757Z,77.36
2017-06-03T10:12:11.556Z,77.17
2017-06-03T10:13:27.013Z,76.5
2017-06-03T10:14:42.490Z,77.36
2017-06-03T10:15:58.046Z,77.36
2017-06-03T10:17:13.437Z,77.17
2017-06-03T10:18:28.943Z,77.75
2017-06-03T10:19:44.378Z,77.84
2017-06-03T10:20:59.849Z,78.8
2017-06-03T10:22:15.577Z,78.84
2017-06-03T10:23:29.746Z,78.27
2017-06-03T10:24:44.852Z,77.4
2017-06-03T10:25:57.581Z,77.4
2017-06-03T10:27:12.228Z,77.4
2017-06-03T10:28:27.764Z,77.06
2017-06-03T10:29:41.955Z,76.77
2017-06-03T10:30:56.450Z,76.57
2017-06-03T10:32:10.805Z,76.57
2017-06-03T10:33:24.945Z,76.23
2017-06-03T10:34:40.449Z,75.94
2017-06-03T10:35:54.601Z,75.07
2017-06-03T10:37:10.517Z,75.17
2017-06-03T10:38:26.011Z,74.88
2017-06-03T10:39:41.445Z,74.92
2017-06-03T10:40:56.942Z,74.92
2017-06-03T10:42:12.605Z,74.15
2017-06-03T10:43:28.357Z,73.96
2017-06-03T10:44:43.912Z,73.67
2017-06-03T10:45:59.379Z,74.05
2017-06-03T10:47:15.054Z,74.86
2017-06-03T10:48:30.511Z,74.44
2017-06-03T10:49:44.592Z,73.71
2017-06-03T10:51:00.050Z,73.22
2017-06-03T10:52:14.209Z,73.61
2017-06-03T10:53:29.839Z,73.61
2017-06-03T10:54:43.907Z,73.22
2017-06-03T10:55:59.393Z,72.94
2017-06-03T10:57:13.437Z,72.65
2017-06-03T10:58:29.029Z,72.94
2017-06-03T10:59:44.442Z,72.74
2017-06-03T11:00:59.859Z,73.22
2017-06-03T11:02:15.358Z,72.94
2017-06-03T11:03:31.077Z,73.22
2017-06-03T11:04:46.573Z,73.42
2017-06-03T11:06:02.061Z,73.47
2017-06-03T11:07:17.537Z,74.05
2017-06-03T11:08:33.271Z,73.86
2017-06-03T11:09:45.936Z,74.05
2017-06-03T11:11:01.398Z,73.96
2017-06-03T11:12:15.575Z,74.44
2017-06-03T11:13:31.028Z,74.38
2017-06-03T11:14:46.506Z,74.82
2017-06-03T11:16:01.982Z,74.76
2017-06-03T11:17:16.117Z,75.54
2017-06-03T11:18:31.803Z,75.05
2017-06-03T11:19:47.225Z,74.48
2017-06-03T11:21:02.390Z,73.94
2017-06-03T11:22:17.838Z,73.84
2017-06-03T11:23:32.126Z,73.65
2017-06-03T11:24:47.625Z,73.49
2017-06-03T11:26:03.124Z,73.2
2017-06-03T11:27:18.608Z,73.3
2017-06-03T11:28:34.332Z,72.37
2017-06-03T11:29:49.899Z,71.79
2017-06-03T11:31:05.375Z,71.6
2017-06-03T11:32:20.872Z,71.5
2017-06-03T11:33:36.763Z,71.31
2017-06-03T11:34:52.296Z,71.22
2017-06-03T11:36:07.817Z,70.64
2017-06-03T11:37:23.518Z,71.5
2017-06-03T11:38:39.291Z,71.41
2017-06-03T11:39:54.552Z,70.64
2017-06-03T11:41:09.981Z,70.73
2017-06-03T11:42:24.200Z,70.92
2017-06-03T11:43:38.533Z,70.54
2017-06-03T11:44:53.999Z,70.73
2017-06-03T11:46:08.250Z,70.54
2017-06-03T11:47:23.690Z,70.38
2017-06-03T11:48:38.263Z,69.42
2017-06-03T11:49:53.769Z,68.68
2017-06-03T11:51:09.254Z,68.87
2017-06-03T11:52:24.870Z,68.04
2017-06-03T11:53:40.603Z,67.36
2017-06-03T11:54:54.789Z,66.49
2017-06-03T11:56:10.255Z,66.4
2017-06-03T11:57:25.732Z,66.53
2017-06-03T11:58:41.457Z,66.14
2017-06-03T11:59:57.190Z,65.91
2017-06-03T12:01:12.685Z,65.53
2017-06-03T12:02:28.470Z,65.72
2017-06-03T12:03:44.299Z,65.82
2017-06-03T12:04:59.765Z,65.63
2017-06-03T12:06:15.220Z,65.63
2017-06-03T12:07:30.695Z,65.24
2017-06-03T12:08:46.386Z,65.34
2017-06-03T12:10:01.554Z,65.72
2017-06-03T12:11:16.991Z,65.63
2017-06-03T12:12:32.423Z,65.63
2017-06-03T12:13:48.138Z,65.59
2017-06-03T12:15:03.583Z,65.59
2017-06-03T12:16:19.110Z,65.98
2017-06-03T12:17:34.832Z,66.08
2017-06-03T12:18:50.577Z,65.88
2017-06-03T12:20:06.258Z,65.69
2017-06-03T12:21:21.340Z,65.88
2017-06-03T12:22:36.812Z,65.78
2017-06-03T12:23:52.482Z,66.04
2017-06-03T12:25:08.047Z,65.95
2017-06-03T12:26:54.451Z,66.24
2017-06-03T12:28:10.176Z,66.43
2017-06-03T12:29:26.028Z,66.24
2017-06-03T12:30:41.121Z,66.24
2017-06-03T12:31:56.608Z,66.3
2017-06-03T12:33:12.105Z,66.49
2017-06-03T12:34:27.802Z,66.39
2017-06-03T12:35:43.209Z,66.3
2017-06-03T12:36:58.752Z,66.78
2017-06-03T12:38:14.184Z,66.49
2017-06-03T12:39:29.896Z,66.69
2017-06-03T12:40:45.348Z,66.49
2017-06-03T12:42:00.753Z,66.39
2017-06-03T12:43:16.212Z,66.49
2017-06-03T12:44:30.537Z,66.69
2017-06-03T12:45:44.887Z,66.69
2017-06-03T12:47:00.887Z,67.07
2017-06-03T12:48:15.115Z,66.78
2017-06-03T12:49:30.771Z,66.78
2017-06-03T12:50:46.255Z,67.07
2017-06-03T12:52:01.836Z,67.42
2017-06-03T12:53:15.980Z,67.46
2017-06-03T12:54:31.722Z,67.16
2017-06-03T12:55:47.141Z,67.46
2017-06-03T12:57:01.271Z,67.16
2017-06-03T12:58:15.095Z,67.26
2017-06-03T12:59:29.701Z,67.36
2017-06-03T13:00:43.852Z,67.07
2017-06-03T13:01:59.311Z,66.59
2017-06-03T13:03:14.749Z,66.36
2017-06-03T13:04:30.460Z,66.36
2017-06-03T13:05:44.718Z,66.46
2017-06-03T13:07:00.120Z,66.27
2017-06-03T13:08:14.452Z,66.46
2017-06-03T13:09:29.908Z,66.17
2017-06-03T13:10:44.348Z,66.01
2017-06-03T13:11:59.786Z,66.01
2017-06-03T13:13:15.313Z,65.53
2017-06-03T13:14:29.538Z,65.53
2017-06-03T13:15:45.487Z,64.95
2017-06-03T13:17:00.966Z,65.24
2017-06-03T13:18:16.452Z,64.37
2017-06-03T13:19:31.994Z,64.76
2017-06-03T13:20:47.668Z,64.18
2017-06-03T13:22:03.080Z,64.08
2017-06-03T13:23:18.555Z,63.98
2017-06-03T13:24:33.997Z,63.6
2017-06-03T13:25:49.329Z,63.54
2017-06-03T13:27:04.834Z,63.63
2017-06-03T13:28:18.629Z,63.06
2017-06-03T13:29:32.694Z,63.06
2017-06-03T13:30:48.500Z,63.15
2017-06-03T13:32:04.307Z,63.15
2017-06-03T13:33:19.752Z,63.34
2017-06-03T13:34:35.196Z,62.79
2017-06-03T13:35:49.649Z,63.37
2017-06-03T13:37:05.115Z,62.89
2017-06-03T13:38:20.915Z,62.99
2017-06-03T13:39:36.345Z,62.31
2017-06-03T13:40:51.935Z,62.41
2017-06-03T13:42:07.363Z,62.12
2017-06-03T13:43:22.473Z,62.54
2017-06-03T13:44:37.913Z,62.25
2017-06-03T13:45:52.316Z,62.63
2017-06-03T13:47:07.784Z,61.77
2017-06-03T13:48:23.507Z,61.28
2017-06-03T13:49:39.035Z,61.31
2017-06-03T13:50:54.726Z,60.93
2017-06-03T13:52:10.491Z,60.93
2017-06-03T13:53:25.880Z,60.83
2017-06-03T13:54:39.668Z,60.35
2017-06-03T13:55:53.819Z,60.54
2017-06-03T13:57:08.187Z,60.54
2017-06-03T13:58:23.602Z,59.86
2017-06-03T13:59:39.041Z,60.06
2017-06-03T14:00:53.178Z,59.58
2017-06-03T14:02:08.875Z,59.86
2017-06-03T14:03:24.632Z,60.18
2017-06-03T14:04:40.076Z,60.06
2017-06-03T14:05:53.923Z,59.67
2017-06-03T14:07:09.561Z,59.67
2017-06-03T14:08:25.054Z,59.8
2017-06-03T14:09:40.539Z,59.89
2017-06-03T14:10:56.083Z,59.51
2017-06-03T14:12:08.969Z,59.51
2017-06-03T14:13:23.244Z,59.51
2017-06-03T14:14:37.374Z,59.6
2017-06-03T14:15:51.652Z,59.41
2017-06-03T14:17:05.775Z,59.12
2017-06-03T14:18:21.476Z,59.02
2017-06-03T14:19:36.946Z,59.02
2017-06-03T14:20:52.439Z,58.93
2017-06-03T14:22:06.686Z,58.93
2017-06-03T14:23:22.623Z,59.12
2017-06-03T14:24:38.122Z,58.93
2017-06-03T14:25:53.611Z,59.22
2017-06-03T14:27:09.254Z,58.64
2017-06-03T14:28:25.042Z,58.67
2017-06-03T14:29:40.791Z,58.73
2017-06-03T14:30:56.207Z,58.47
2017-06-03T14:32:11.660Z,58.18
2017-06-03T14:33:27.385Z,58.28
2017-06-03T14:34:42.833Z,58.06
2017-06-03T14:35:58.257Z,57.96
2017-06-03T14:37:13.756Z,57.48
2017-06-03T14:38:29.472Z,57.57
2017-06-03T14:39:42.277Z,57.57
2017-06-03T14:40:56.533Z,57.57
2017-06-03T14:42:11.957Z,57.41
2017-06-03T14:43:27.672Z,57.6
2017-06-03T14:44:43.344Z,57.79
2017-06-03T14:45:57.695Z,57.6
2017-06-03T14:47:13.182Z,57.7
2017-06-03T14:48:28.886Z,57.41
2017-06-03T14:49:43.005Z,57.51
2017-06-03T14:50:58.496Z,57.6
2017-06-03T14:52:13.961Z,57.31
2017-06-03T14:53:29.668Z,57.31
2017-06-03T14:54:45.179Z,57.7
2017-06-03T14:56:00.730Z,57.6
2017-06-03T14:57:15.063Z,57.89
2017-06-03T14:58:30.725Z,57.79
2017-06-03T14:59:46.207Z,57.51
2017-06-03T15:01:02.123Z,57.89
2017-06-03T15:02:17.649Z,57.79
2017-06-03T15:03:30.723Z,57.31
2017-06-03T15:04:46.250Z,57.7
2017-06-03T15:06:01.710Z,57.6
2017-06-03T15:07:17.238Z,57.7
2017-06-03T15:08:32.881Z,57.6
2017-06-03T15:09:48.343Z,57.89
2017-06-03T15:11:02.528Z,57.73
2017-06-03T15:12:17.964Z,57.89
2017-06-03T15:13:33.686Z,57.89
2017-06-03T15:14:48.764Z,58.02
2017-06-03T15:16:04.314Z,57.15
2017-06-03T15:17:19.826Z,57.05
2017-06-03T15:18:35.161Z,56.86
2017-06-03T15:19:49.541Z,57.24
2017-06-03T15:21:04.949Z,57.15
2017-06-03T15:22:19.825Z,56.86
2017-06-03T15:23:35.513Z,56.67
2017-06-03T15:24:51.202Z,57.15
2017-06-03T15:26:06.681Z,56.76
2017-06-03T15:27:22.151Z,57.15
2017-06-03T15:28:37.977Z,57.15
2017-06-03T15:29:53.131Z,56.86
2017-06-03T15:31:08.651Z,56.76
2017-06-03T15:32:22.915Z,56.76
2017-06-03T15:33:38.605Z,56.57
2017-06-03T15:34:54.026Z,56.57
2017-06-03T15:36:09.515Z,56.86
2017-06-03T15:37:25.160Z,56.86
2017-06-03T15:38:40.991Z,56.67
2017-06-03T15:39:56.407Z,56.86
2017-06-03T15:41:09.178Z,57.34
2017-06-03T15:42:24.687Z,56.83
2017-06-03T15:43:40.469Z,57.41
2017-06-03T15:44:55.897Z,57.31
2017-06-03T15:46:11.341Z,57.31
2017-06-03T15:47:26.734Z,57.79
2017-06-03T15:48:41.112Z,57.7
2017-06-03T15:49:56.646Z,57.51
2017-06-03T15:51:10.853Z,57.79
2017-06-03T15:52:26.372Z,57.6
2017-06-03T15:53:41.733Z,58.28
2017-06-03T15:54:57.157Z,58.28
2017-06-03T15:56:11.319Z,58.37
2017-06-03T15:57:26.833Z,58.47
2017-06-03T15:58:42.739Z,58.28
2017-06-03T15:59:58.491Z,58.28
2017-06-03T16:01:13.983Z,58.18
2017-06-03T16:02:28.070Z,58.57
2017-06-03T16:03:43.856Z,58.47
2017-06-03T16:04:59.325Z,58.95
2017-06-03T16:06:14.976Z,58.76
2017-06-03T16:07:30.440Z,58.67
2017-06-03T16:08:46.382Z,59.25
2017-06-03T16:10:01.891Z,59.15
2017-06-03T16:11:17.374Z,58.86
2017-06-03T16:12:31.381Z,59.05
2017-06-03T16:13:47.075Z,58.83
2017-06-03T16:15:02.610Z,59.02